Online Now
Guests 2
Members   0

24/7 FSX Server
IP: 71.135.74.145
@ KLAX until 8/14/20



Information and tools for flight simulation use only - NOT for real avaition

File Flight Plans Here

KLAX 081353Z 00000KT 10SM R25L/2000VP6000FT FEW015 17/14 A2999 RMK AO2 SLP153 T01720144 $KLAX 081128Z 0812/0918 VRB03KT P6SM SKC FM081700 26006KT P6SM SKC FM082100 26012KT P6SM SKC FM090400 25006KT P6SM SKC FM090800 VRB03KT P6SM SKC FM091200 VRB03KT P6SM OVC012
Aviation Digital Data Service (ADDS)



Other FSX servers